Time,TemperatureF,DewpointF,PressureIn,WindDirection,WindDirectionDegrees,WindSpeedMPH,WindSpeedGustMPH,Humidity,HourlyPrecipIn,Conditions,Clouds,dailyrainin,SoftwareType,DateUTC
2013-03-31 00:00:00,59.2,45.8,30.33,WSW,248,0.0,0.0,61,0.00,,SCT025,0.00,VWS V14.00,2013-03-31 04:00:00,
2013-03-31 00:05:00,59.2,45.8,30.33,WSW,248,0.0,0.0,61,0.00,,SCT025,0.00,VWS V14.00,2013-03-31 04:05:00,
2013-03-31 00:10:00,58.6,45.7,30.33,WSW,248,0.0,0.0,62,0.00,,SCT025,0.00,VWS V14.00,2013-03-31 04:10:00,
2013-03-31 00:15:00,58.5,46.3,30.33,SSW,202,0.0,0.0,64,0.00,,SCT025,0.00,VWS V14.00,2013-03-31 04:15:00,
2013-03-31 00:20:00,58.3,47.4,30.33,SSW,202,0.0,0.0,67,0.00,,SCT025,0.00,VWS V14.00,2013-03-31 04:20:00,
2013-03-31 00:25:00,58.3,47.4,30.33,SW,225,0.0,0.0,67,0.00,,SCT025,0.00,VWS V14.00,2013-03-31 04:25:00,
2013-03-31 00:30:00,58.5,46.8,30.33,SW,225,0.0,0.0,65,0.00,,SCT025,0.00,VWS V14.00,2013-03-31 04:30:00,
2013-03-31 00:35:00,58.6,47.3,30.30,SW,225,0.0,0.0,66,0.00,,SCT025,0.00,VWS V14.00,2013-03-31 04:35:00,
2013-03-31 00:40:00,58.8,47.1,30.30,SW,225,0.0,0.0,65,0.00,,SCT025,0.00,VWS V14.00,2013-03-31 04:40:00,
2013-03-31 00:45:00,59.0,47.3,30.30,SW,225,0.0,0.0,65,0.00,,SCT025,0.00,VWS V14.00,2013-03-31 04:45:00,
2013-03-31 00:50:00,59.0,47.3,30.27,SW,225,0.0,0.0,65,0.00,,SCT025,0.00,VWS V14.00,2013-03-31 04:50:00,
2013-03-31 00:55:00,58.8,46.7,30.27,SW,225,0.0,0.0,64,0.00,,SCT025,0.00,VWS V14.00,2013-03-31 04:55:00,
2013-03-31 01:00:00,58.8,47.5,30.27,SW,225,0.0,0.0,66,0.00,,SCT025,0.00,VWS V14.00,2013-03-31 05:00:00,
2013-03-31 01:05:00,58.8,47.1,30.27,SW,225,0.0,0.0,65,0.00,,SCT025,0.00,VWS V14.00,2013-03-31 05:05:00,
2013-03-31 01:10:00,58.8,47.5,30.30,SW,225,0.0,0.0,66,0.00,,SCT025,0.00,VWS V14.00,2013-03-31 05:10:00,
2013-03-31 01:15:00,58.8,47.9,30.30,SW,225,0.0,0.0,67,0.00,,SCT025,0.00,VWS V14.00,2013-03-31 05:15:00,
2013-03-31 01:20:00,58.8,47.9,30.30,SW,225,0.0,0.0,67,0.00,,SCT025,0.00,VWS V14.00,2013-03-31 05:20:00,
2013-03-31 01:25:00,58.8,47.9,30.30,SW,225,0.0,0.0,67,0.00,,SCT025,0.00,VWS V14.00,2013-03-31 05:25:00,
2013-03-31 01:30:00,58.3,47.0,30.30,SW,225,0.0,0.0,66,0.00,,SCT025,0.00,VWS V14.00,2013-03-31 05:30:00,
2013-03-31 01:35:00,58.1,46.8,30.27,SW,225,0.0,0.0,66,0.00,,SCT025,0.00,VWS V14.00,2013-03-31 05:35:00,
2013-03-31 01:40:00,58.1,46.8,30.27,SW,225,0.0,0.0,66,0.00,,SCT025,0.00,VWS V14.00,2013-03-31 05:40:00,
2013-03-31 01:45:00,57.9,47.4,30.30,SW,225,0.0,0.0,68,0.00,,SCT025,0.00,VWS V14.00,2013-03-31 05:45:00,
2013-03-31 01:50:00,57.7,46.9,30.30,SW,225,0.0,0.0,67,0.00,,SCT025,0.00,VWS V14.00,2013-03-31 05:50:00,
2013-03-31 01:55:00,57.7,46.9,30.30,SW,225,0.0,0.0,67,0.00,,SCT025,0.00,VWS V14.00,2013-03-31 05:55:00,
2013-03-31 02:00:00,57.7,48.0,30.30,SW,225,0.0,0.0,70,0.00,,SCT025,0.00,VWS V14.00,2013-03-31 06:00:00,
2013-03-31 02:05:00,57.7,48.8,30.30,SW,225,0.0,0.0,72,0.00,,SCT025,0.00,VWS V14.00,2013-03-31 06:05:00,
2013-03-31 02:10:00,57.9,48.6,30.30,SSW,202,0.0,0.0,71,0.00,,SCT025,0.00,VWS V14.00,2013-03-31 06:10:00,
2013-03-31 02:15:00,57.9,48.6,30.30,SSW,202,0.0,0.0,71,0.00,,SCT025,0.00,VWS V14.00,2013-03-31 06:15:00,
2013-03-31 02:20:00,58.1,48.8,30.30,SSW,202,0.0,0.0,71,0.00,,SCT025,0.00,VWS V14.00,2013-03-31 06:20:00,
2013-03-31 02:25:00,58.3,48.9,30.30,SSW,202,0.0,0.0,71,0.00,,SCT025,0.00,VWS V14.00,2013-03-31 06:25:00,
2013-03-31 02:30:00,58.5,49.5,30.30,SSW,202,0.0,0.0,72,0.00,,SCT025,0.00,VWS V14.00,2013-03-31 06:30:00,
2013-03-31 02:35:00,58.5,49.1,30.30,SSW,202,0.0,0.0,71,0.00,,SCT025,0.00,VWS V14.00,2013-03-31 06:35:00,
2013-03-31 02:39:00,58.6,49.3,30.30,SSW,202,0.0,0.0,71,0.00,,SCT025,0.00,VWS V14.00,2013-03-31 06:39:00,
2013-03-31 02:44:00,58.6,48.9,30.30,SSW,202,0.0,0.0,70,0.00,,SCT025,0.00,VWS V14.00,2013-03-31 06:44:00,
2013-03-31 02:49:00,58.5,48.7,30.30,SSW,202,0.0,0.0,70,0.00,,SCT025,0.00,VWS V14.00,2013-03-31 06:49:00,
2013-03-31 02:54:00,58.5,48.7,30.30,SSW,202,0.0,0.0,70,0.00,,SCT025,0.00,VWS V14.00,2013-03-31 06:54:00,
2013-03-31 02:59:00,57.4,47.7,30.30,SSW,202,0.0,0.0,70,0.00,,SCT025,0.00,VWS V14.00,2013-03-31 06:59:00,
2013-03-31 03:04:00,57.4,48.1,30.30,SSW,202,0.0,0.0,71,0.00,,SCT025,0.00,VWS V14.00,2013-03-31 07:04:00,
2013-03-31 03:09:00,56.7,47.8,30.30,SSW,202,0.0,0.0,72,0.00,,SCT025,0.00,VWS V14.00,2013-03-31 07:09:00,
2013-03-31 03:14:00,56.5,47.9,30.30,SSW,202,0.0,0.0,73,0.00,,SCT025,0.00,VWS V14.00,2013-03-31 07:14:00,
2013-03-31 03:19:00,56.3,48.1,30.27,SSW,202,0.0,0.0,74,0.00,,SCT025,0.00,VWS V14.00,2013-03-31 07:19:00,
2013-03-31 03:24:00,56.3,47.8,30.27,SSW,202,0.0,0.0,73,0.00,,SCT025,0.00,VWS V14.00,2013-03-31 07:24:00,
2013-03-31 03:29:00,56.1,48.0,30.27,SSW,202,0.0,0.0,74,0.00,,SCT025,0.00,VWS V14.00,2013-03-31 07:29:00,
2013-03-31 03:34:00,56.1,48.0,30.27,SSW,202,0.0,0.0,74,0.00,,SCT025,0.00,VWS V14.00,2013-03-31 07:34:00,
2013-03-31 03:39:00,55.9,47.8,30.27,SSW,202,0.0,0.0,74,0.00,,SCT025,0.00,VWS V14.00,2013-03-31 07:39:00,
2013-03-31 03:44:00,55.9,47.8,30.27,SSW,202,0.0,0.0,74,0.00,,SCT025,0.00,VWS V14.00,2013-03-31 07:44:00,
2013-03-31 03:49:00,55.9,47.8,30.27,SSW,202,0.0,0.0,74,0.00,,SCT025,0.00,VWS V14.00,2013-03-31 07:49:00,
2013-03-31 03:54:00,55.8,47.6,30.27,SSW,202,0.0,0.0,74,0.00,,SCT025,0.00,VWS V14.00,2013-03-31 07:54:00,
2013-03-31 03:59:00,55.6,48.8,30.24,SSW,202,0.0,0.0,78,0.00,,SCT025,0.00,VWS V14.00,2013-03-31 07:59:00,
2013-03-31 04:04:00,55.2,48.2,30.24,SSW,202,0.0,0.0,77,0.00,,SCT025,0.00,VWS V14.00,2013-03-31 08:04:00,
2013-03-31 04:09:00,55.0,47.6,30.24,SSW,202,0.0,0.0,76,0.00,,SCT025,0.00,VWS V14.00,2013-03-31 08:09:00,
2013-03-31 04:14:00,54.5,47.8,30.24,SSW,202,0.0,0.0,78,0.00,,SCT025,0.00,VWS V14.00,2013-03-31 08:14:00,
2013-03-31 04:19:00,54.9,49.5,30.24,SSW,202,0.0,0.0,82,0.00,,SCT025,0.00,VWS V14.00,2013-03-31 08:19:00,
2013-03-31 04:24:00,54.9,49.5,30.24,SSW,202,0.0,0.0,82,0.00,,SCT025,0.00,VWS V14.00,2013-03-31 08:24:00,
2013-03-31 04:29:00,54.5,48.5,30.24,SSW,202,0.0,0.0,80,0.00,,SCT025,0.00,VWS V14.00,2013-03-31 08:29:00,
2013-03-31 04:34:00,55.0,50.0,30.21,North,0,0.0,0.0,83,0.00,,SCT025,0.00,VWS V14.00,2013-03-31 08:34:00,
2013-03-31 04:39:00,55.2,49.8,30.21,SSW,202,0.0,0.0,82,0.00,,SCT025,0.00,VWS V14.00,2013-03-31 08:39:00,
2013-03-31 04:44:00,55.8,50.7,30.24,SSW,202,0.0,0.0,83,0.00,,SCT025,0.00,VWS V14.00,2013-03-31 08:44:00,
2013-03-31 04:49:00,56.1,50.7,30.24,SSW,202,0.0,0.0,82,0.00,,SCT025,0.00,VWS V14.00,2013-03-31 08:49:00,
2013-03-31 04:54:00,56.1,50.7,30.24,SSW,202,0.0,0.0,82,0.00,,SCT025,0.00,VWS V14.00,2013-03-31 08:54:00,
2013-03-31 04:59:00,56.5,50.1,30.24,SSW,202,0.0,0.0,79,0.00,,SCT025,0.00,VWS V14.00,2013-03-31 08:59:00,
2013-03-31 05:04:00,56.5,50.1,30.24,SSW,202,0.0,0.0,79,0.00,,SCT025,0.00,VWS V14.00,2013-03-31 09:04:00,
2013-03-31 05:09:00,56.5,50.1,30.24,SSW,202,0.0,0.0,79,0.00,,SCT025,0.00,VWS V14.00,2013-03-31 09:09:00,
2013-03-31 05:14:00,56.7,49.9,30.24,SSW,202,0.0,0.0,78,0.00,,SCT025,0.00,VWS V14.00,2013-03-31 09:14:00,
2013-03-31 05:19:00,56.5,49.0,30.24,SSW,202,0.0,0.0,76,0.00,,SCT025,0.00,VWS V14.00,2013-03-31 09:19:00,
2013-03-31 05:24:00,56.5,48.7,30.24,SSW,202,0.0,0.0,75,0.00,,SCT025,0.00,VWS V14.00,2013-03-31 09:24:00,
2013-03-31 05:29:00,56.7,49.5,30.24,SSW,202,0.0,0.0,77,0.00,,SCT025,0.00,VWS V14.00,2013-03-31 09:29:00,
2013-03-31 05:34:00,56.7,49.2,30.24,SSW,202,0.0,0.0,76,0.00,,SCT025,0.00,VWS V14.00,2013-03-31 09:34:00,
2013-03-31 05:39:00,56.7,49.2,30.24,SSW,202,0.0,0.0,76,0.00,,SCT025,0.00,VWS V14.00,2013-03-31 09:39:00,
2013-03-31 05:44:00,56.7,49.2,30.24,SSW,202,0.0,0.0,76,0.00,,SCT025,0.00,VWS V14.00,2013-03-31 09:44:00,
2013-03-31 05:49:00,56.3,48.1,30.24,SSW,202,0.0,0.0,74,0.00,,SCT025,0.00,VWS V14.00,2013-03-31 09:49:00,
2013-03-31 05:54:00,56.1,48.0,30.24,SSW,202,0.0,0.0,74,0.00,,SCT025,0.00,VWS V14.00,2013-03-31 09:54:00,
2013-03-31 05:59:00,55.6,47.8,30.24,SSW,202,0.0,0.0,75,0.00,,SCT025,0.00,VWS V14.00,2013-03-31 09:59:00,
2013-03-31 06:04:00,55.6,47.8,30.24,SSW,202,0.0,0.0,75,0.00,,SCT025,0.00,VWS V14.00,2013-03-31 10:04:00,
2013-03-31 06:09:00,55.6,47.8,30.24,SSW,202,0.0,0.0,75,0.00,,SCT025,0.00,VWS V14.00,2013-03-31 10:09:00,
2013-03-31 06:14:00,54.5,48.1,30.24,SSW,202,0.0,0.0,79,0.00,,SCT025,0.00,VWS V14.00,2013-03-31 10:14:00,
2013-03-31 06:19:00,54.5,48.1,30.24,SSW,202,0.0,0.0,79,0.00,,SCT025,0.00,VWS V14.00,2013-03-31 10:19:00,
2013-03-31 06:24:00,54.7,49.6,30.24,SSW,202,0.0,0.0,83,0.00,,SCT025,0.00,VWS V14.00,2013-03-31 10:24:00,
2013-03-31 06:29:00,54.9,49.5,30.24,SSW,202,0.0,0.0,82,0.00,,SCT025,0.00,VWS V14.00,2013-03-31 10:29:00,
2013-03-31 06:34:00,54.9,49.5,30.24,SSW,202,0.0,0.0,82,0.00,,SCT025,0.00,VWS V14.00,2013-03-31 10:34:00,
2013-03-31 06:39:00,54.5,49.5,30.24,SSE,158,0.0,0.0,83,0.00,,SCT025,0.00,VWS V14.00,2013-03-31 10:39:00,
2013-03-31 06:44:00,54.3,49.6,30.24,SSW,202,0.0,0.0,84,0.00,,SCT025,0.00,VWS V14.00,2013-03-31 10:44:00,
2013-03-31 06:49:00,54.3,49.3,30.24,SSW,202,0.0,0.0,83,0.00,,SCT025,0.00,VWS V14.00,2013-03-31 10:49:00,
2013-03-31 06:54:00,54.5,49.5,30.24,SSW,202,0.0,0.0,83,0.00,,SCT025,0.00,VWS V14.00,2013-03-31 10:54:00,
2013-03-31 06:59:00,54.5,49.5,30.24,SSW,202,0.0,0.0,83,0.00,,SCT025,0.00,VWS V14.00,2013-03-31 10:59:00,
2013-03-31 07:04:00,54.5,49.5,30.27,SSW,202,0.0,0.0,83,0.00,,SCT025,0.00,VWS V14.00,2013-03-31 11:04:00,
2013-03-31 07:09:00,54.5,49.8,30.27,SSW,202,0.0,0.0,84,0.00,,SCT025,0.00,VWS V14.00,2013-03-31 11:09:00,
2013-03-31 07:14:00,54.5,49.5,30.27,SSW,202,0.0,0.0,83,0.00,,SCT025,0.00,VWS V14.00,2013-03-31 11:14:00,
2013-03-31 07:19:00,54.3,49.9,30.27,SSW,202,0.0,0.0,85,0.00,,SCT025,0.00,VWS V14.00,2013-03-31 11:19:00,
2013-03-31 07:24:00,54.0,49.6,30.27,SSW,202,0.0,0.0,85,0.00,,SCT025,0.00,VWS V14.00,2013-03-31 11:24:00,
2013-03-31 07:29:00,53.8,49.4,30.27,SSW,202,0.0,0.0,85,0.00,,SCT025,0.00,VWS V14.00,2013-03-31 11:29:00,
2013-03-31 07:34:00,53.8,49.4,30.27,SSW,202,0.0,0.0,85,0.00,,SCT025,0.00,VWS V14.00,2013-03-31 11:34:00,
2013-03-31 07:39:00,53.8,49.4,30.27,SSW,202,0.0,0.0,85,0.00,,SCT025,0.00,VWS V14.00,2013-03-31 11:39:00,
2013-03-31 07:44:00,53.8,49.1,30.27,SSW,202,0.0,0.0,84,0.00,,SCT025,0.00,VWS V14.00,2013-03-31 11:44:00,
2013-03-31 07:49:00,54.1,49.7,30.27,SSW,202,0.0,0.0,85,0.00,,SCT025,0.00,VWS V14.00,2013-03-31 11:49:00,
2013-03-31 07:54:00,54.7,50.6,30.27,SSW,202,0.0,0.0,86,0.00,,SCT025,0.00,VWS V14.00,2013-03-31 11:54:00,
2013-03-31 07:59:00,55.4,51.6,30.30,SSW,202,0.0,0.0,87,0.00,,SCT025,0.00,VWS V14.00,2013-03-31 11:59:00,
2013-03-31 08:04:00,55.6,51.8,30.30,SSW,202,0.0,0.0,87,0.00,,SCT025,0.00,VWS V14.00,2013-03-31 12:04:00,
2013-03-31 08:09:00,56.1,52.3,30.30,SSW,202,0.0,0.0,87,0.00,,SCT025,0.00,VWS V14.00,2013-03-31 12:09:00,
2013-03-31 08:14:00,57.6,54.3,30.30,SSW,202,0.0,0.0,89,0.00,,SCT025,0.00,VWS V14.00,2013-03-31 12:14:00,
2013-03-31 08:19:00,58.5,55.5,30.30,SW,225,0.0,0.0,90,0.00,,SCT025,0.00,VWS V14.00,2013-03-31 12:19:00,
2013-03-31 08:24:00,58.5,55.5,30.30,SW,225,0.0,0.0,90,0.00,,SCT025,0.00,VWS V14.00,2013-03-31 12:24:00,
2013-03-31 08:29:00,62.4,58.2,30.30,SW,225,0.0,0.0,86,0.00,,SCT025,0.00,VWS V14.00,2013-03-31 12:29:00,
2013-03-31 08:34:00,62.4,58.2,30.30,South,180,0.0,0.0,86,0.00,,SCT025,0.00,VWS V14.00,2013-03-31 12:34:00,
2013-03-31 08:39:00,65.7,59.3,30.30,SSW,202,0.0,0.0,80,0.00,,SCT025,0.00,VWS V14.00,2013-03-31 12:39:00,
2013-03-31 08:44:00,67.1,59.7,30.30,SW,225,0.0,0.0,77,0.00,,SCT025,0.00,VWS V14.00,2013-03-31 12:44:00,
2013-03-31 08:49:00,68.7,57.3,30.30,SW,225,0.0,0.0,67,0.00,,SCT025,0.00,VWS V14.00,2013-03-31 12:49:00,
2013-03-31 08:54:00,70.3,56.3,30.30,WSW,248,0.0,0.0,61,0.00,,SCT025,0.00,VWS V14.00,2013-03-31 12:54:00,
2013-03-31 08:59:00,70.7,56.2,30.30,WSW,248,0.0,0.0,60,0.00,,SCT025,0.00,VWS V14.00,2013-03-31 12:59:00,
2013-03-31 09:04:00,71.8,53.8,30.30,WSW,248,0.0,0.0,53,0.00,,SCT025,0.00,VWS V14.00,2013-03-31 13:04:00,
2013-03-31 09:09:00,72.5,51.2,30.30,WSW,248,0.9,0.9,47,0.00,,SCT025,0.00,VWS V14.00,2013-03-31 13:09:00,
2013-03-31 09:14:00,72.9,49.7,30.30,WSW,248,0.9,0.9,44,0.00,,SCT025,0.00,VWS V14.00,2013-03-31 13:14:00,
2013-03-31 09:19:00,73.0,48.6,30.30,SW,225,2.0,2.0,42,0.00,,SCT025,0.00,VWS V14.00,2013-03-31 13:19:00,
2013-03-31 09:24:00,72.9,47.8,30.30,WSW,248,0.9,0.9,41,0.00,,SCT025,0.00,VWS V14.00,2013-03-31 13:24:00,
2013-03-31 09:29:00,72.7,47.7,30.30,WSW,248,1.6,1.6,41,0.00,,SCT025,0.00,VWS V14.00,2013-03-31 13:29:00,
2013-03-31 09:34:00,73.2,48.1,30.30,WSW,248,2.9,2.9,41,0.00,,SCT025,0.00,VWS V14.00,2013-03-31 13:34:00,
2013-03-31 09:39:00,73.4,48.3,30.30,WSW,248,0.0,0.0,41,0.00,,SCT025,0.00,VWS V14.00,2013-03-31 13:39:00,
2013-03-31 09:44:00,72.1,47.2,30.27,WSW,248,1.1,1.1,41,0.00,,SCT025,0.00,VWS V14.00,2013-03-31 13:44:00,
2013-03-31 09:49:00,73.2,48.8,30.27,West,270,2.0,2.0,42,0.00,,SCT025,0.00,VWS V14.00,2013-03-31 13:49:00,
2013-03-31 09:54:00,72.5,47.5,30.27,WSW,248,2.9,2.9,41,0.00,,SCT025,0.00,VWS V14.00,2013-03-31 13:54:00,
2013-03-31 09:59:00,72.7,48.3,30.30,WSW,248,1.6,1.6,42,0.00,,SCT025,0.00,VWS V14.00,2013-03-31 13:59:00,
2013-03-31 10:04:00,72.7,48.3,30.30,SW,225,0.0,0.0,42,0.00,,SCT025,0.00,VWS V14.00,2013-03-31 14:04:00,
2013-03-31 10:09:00,72.7,48.3,30.30,SSW,202,2.2,2.2,42,0.00,,SCT025,0.00,VWS V14.00,2013-03-31 14:09:00,
2013-03-31 10:14:00,72.3,48.0,30.30,WSW,248,2.0,2.0,42,0.00,,SCT025,0.00,VWS V14.00,2013-03-31 14:14:00,
2013-03-31 10:19:00,72.5,48.1,30.30,NNE,22,1.6,1.6,42,0.00,,SCT025,0.00,VWS V14.00,2013-03-31 14:19:00,
2013-03-31 10:24:00,72.5,47.5,30.30,SW,225,3.1,3.1,41,0.00,,SCT025,0.00,VWS V14.00,2013-03-31 14:24:00,
2013-03-31 10:29:00,72.7,48.3,30.30,SW,225,6.0,6.0,42,0.00,,SCT025,0.00,VWS V14.00,2013-03-31 14:29:00,
2013-03-31 10:34:00,72.3,48.0,30.30,SW,225,2.9,2.9,42,0.00,,SCT025,0.00,VWS V14.00,2013-03-31 14:34:00,
2013-03-31 10:39:00,72.5,48.8,30.30,SW,225,2.5,2.5,43,0.00,,SCT025,0.00,VWS V14.00,2013-03-31 14:39:00,
2013-03-31 10:44:00,72.7,48.3,30.30,SSW,202,1.3,1.3,42,0.00,,SCT025,0.00,VWS V14.00,2013-03-31 14:44:00,
2013-03-31 10:49:00,72.7,48.3,30.30,SSW,202,1.1,1.1,42,0.00,,SCT025,0.00,VWS V14.00,2013-03-31 14:49:00,
2013-03-31 10:54:00,73.2,47.5,30.30,SSE,158,1.6,1.6,40,0.00,,SCT025,0.00,VWS V14.00,2013-03-31 14:54:00,
2013-03-31 10:59:00,73.8,48.0,30.30,SW,225,2.2,2.2,40,0.00,,SCT025,0.00,VWS V14.00,2013-03-31 14:59:00,
2013-03-31 11:04:00,73.4,46.3,30.30,WSW,248,3.4,3.4,38,0.00,,SCT025,0.00,VWS V14.00,2013-03-31 15:04:00,
2013-03-31 11:09:00,73.6,47.1,30.30,South,180,3.4,3.4,39,0.00,,SCT025,0.00,VWS V14.00,2013-03-31 15:09:00,
2013-03-31 11:14:00,74.1,46.2,30.30,West,270,2.7,2.7,37,0.00,,SCT025,0.00,VWS V14.00,2013-03-31 15:14:00,
2013-03-31 11:19:00,74.7,46.7,30.27,WSW,248,2.0,2.0,37,0.00,,SCT025,0.00,VWS V14.00,2013-03-31 15:19:00,
2013-03-31 11:24:00,74.8,45.4,30.27,SSE,158,0.0,0.0,35,0.00,,SCT025,0.00,VWS V14.00,2013-03-31 15:24:00,
2013-03-31 11:29:00,75.2,45.7,30.30,SW,225,3.1,3.1,35,0.00,,SCT025,0.00,VWS V14.00,2013-03-31 15:29:00,
2013-03-31 11:34:00,74.8,46.1,30.30,WSW,248,2.5,2.5,36,0.00,,SCT025,0.00,VWS V14.00,2013-03-31 15:34:00,
2013-03-31 11:39:00,75.2,45.7,30.30,South,180,3.4,3.4,35,0.00,,SCT025,0.00,VWS V14.00,2013-03-31 15:39:00,
2013-03-31 11:44:00,75.0,44.8,30.30,SW,225,2.9,2.9,34,0.00,,SCT025,0.00,VWS V14.00,2013-03-31 15:44:00,
2013-03-31 11:49:00,75.6,47.5,30.30,SSW,202,3.6,3.6,37,0.00,,SCT025,0.00,VWS V14.00,2013-03-31 15:49:00,
2013-03-31 11:54:00,76.3,46.7,30.30,SSE,158,3.1,3.1,35,0.00,,SCT025,0.00,VWS V14.00,2013-03-31 15:54:00,
2013-03-31 11:59:00,75.9,44.8,30.30,South,180,2.7,2.7,33,0.00,,SCT025,0.00,VWS V14.00,2013-03-31 15:59:00,
2013-03-31 12:04:00,76.5,47.5,30.27,SSE,158,0.0,0.0,36,0.00,,SCT025,0.00,VWS V14.00,2013-03-31 16:04:00,
2013-03-31 12:09:00,76.8,46.3,30.27,SSE,158,4.3,4.3,34,0.00,,SCT025,0.00,VWS V14.00,2013-03-31 16:09:00,
2013-03-31 12:14:00,76.6,45.4,30.27,SSW,202,3.1,3.1,33,0.00,,SCT025,0.00,VWS V14.00,2013-03-31 16:14:00,
2013-03-31 12:19:00,76.6,45.4,30.27,SSW,202,6.5,6.5,33,0.00,,SCT025,0.00,VWS V14.00,2013-03-31 16:19:00,
2013-03-31 12:23:00,77.4,46.0,30.27,West,270,2.0,2.0,33,0.00,,SCT025,0.00,VWS V14.00,2013-03-31 16:23:00,
2013-03-31 12:28:00,77.2,45.9,30.30,South,180,1.1,1.1,33,0.00,,SCT025,0.00,VWS V14.00,2013-03-31 16:28:00,
2013-03-31 12:34:00,77.0,44.1,30.30,SW,225,2.7,2.7,31,0.00,,SCT025,0.00,VWS V14.00,2013-03-31 16:34:00,
2013-03-31 12:39:00,77.5,45.4,30.30,NNW,338,1.3,1.3,32,0.00,,SCT025,0.00,VWS V14.00,2013-03-31 16:39:00,
2013-03-31 12:44:00,77.9,44.9,30.30,SSE,158,3.6,3.6,31,0.00,,SCT025,0.00,VWS V14.00,2013-03-31 16:44:00,
2013-03-31 12:49:00,78.3,46.0,30.30,South,180,2.9,2.9,32,0.00,,SCT025,0.00,VWS V14.00,2013-03-31 16:49:00,
2013-03-31 12:53:00,78.1,45.0,30.27,WNW,292,3.4,3.4,31,0.00,,SCT025,0.00,VWS V14.00,2013-03-31 16:53:00,
2013-03-31 12:58:00,77.9,44.9,30.27,East,90,7.4,7.4,31,0.00,,SCT025,0.00,VWS V14.00,2013-03-31 16:58:00,
2013-03-31 13:03:00,78.3,45.2,30.27,SSW,202,6.3,6.3,31,0.00,,SCT025,0.00,VWS V14.00,2013-03-31 17:03:00,
2013-03-31 13:09:00,78.8,45.6,30.27,SE,135,4.3,4.3,31,0.00,,SCT025,0.00,VWS V14.00,2013-03-31 17:09:00,
2013-03-31 13:14:00,78.4,45.3,30.27,SSW,202,2.9,2.9,31,0.00,,SCT025,0.00,VWS V14.00,2013-03-31 17:14:00,
2013-03-31 13:19:00,78.6,45.5,30.27,South,180,2.7,2.7,31,0.00,,SCT025,0.00,VWS V14.00,2013-03-31 17:19:00,
2013-03-31 13:24:00,79.0,44.9,30.27,SSW,202,4.0,4.0,30,0.00,,SCT025,0.00,VWS V14.00,2013-03-31 17:24:00,
2013-03-31 13:29:00,78.1,45.0,30.24,SW,225,1.6,1.6,31,0.00,,SCT025,0.00,VWS V14.00,2013-03-31 17:29:00,
2013-03-31 13:34:00,78.3,45.2,30.24,SSE,158,2.0,2.0,31,0.00,,SCT025,0.00,VWS V14.00,2013-03-31 17:34:00,
2013-03-31 13:39:00,78.3,45.2,30.24,SW,225,1.6,1.6,31,0.00,,SCT025,0.00,VWS V14.00,2013-03-31 17:39:00,
2013-03-31 13:44:00,79.2,46.0,30.24,SE,135,3.1,3.1,31,0.00,,SCT025,0.00,VWS V14.00,2013-03-31 17:44:00,
2013-03-31 13:49:00,79.3,46.1,30.24,NNE,22,0.9,0.9,31,0.00,,SCT025,0.00,VWS V14.00,2013-03-31 17:49:00,
2013-03-31 13:54:00,79.9,46.6,30.24,West,270,1.6,1.6,31,0.00,,SCT025,0.00,VWS V14.00,2013-03-31 17:54:00,
2013-03-31 13:59:00,80.4,46.2,30.24,South,180,1.1,1.1,30,0.00,,SCT025,0.00,VWS V14.00,2013-03-31 17:59:00,
2013-03-31 14:04:00,80.4,47.0,30.24,SSE,158,1.6,1.6,31,0.00,,SCT025,0.00,VWS V14.00,2013-03-31 18:04:00,
2013-03-31 14:09:00,79.9,45.7,30.24,South,180,2.5,2.5,30,0.00,,SCT025,0.00,VWS V14.00,2013-03-31 18:09:00,
2013-03-31 14:14:00,79.9,45.7,30.24,South,180,1.1,1.1,30,0.00,,SCT025,0.00,VWS V14.00,2013-03-31 18:14:00,
2013-03-31 14:19:00,80.4,46.2,30.24,WSW,248,4.9,4.9,30,0.00,,SCT025,0.00,VWS V14.00,2013-03-31 18:19:00,
2013-03-31 14:24:00,79.9,43.9,30.24,SE,135,1.3,1.3,28,0.00,,SCT025,0.00,VWS V14.00,2013-03-31 18:24:00,
2013-03-31 14:29:00,80.2,45.1,30.24,WSW,248,2.9,2.9,29,0.00,,SCT025,0.00,VWS V14.00,2013-03-31 18:29:00,
2013-03-31 14:34:00,80.8,46.5,30.21,ENE,68,2.9,2.9,30,0.00,,SCT025,0.00,VWS V14.00,2013-03-31 18:34:00,
2013-03-31 14:39:00,80.6,45.4,30.21,West,270,2.5,2.5,29,0.00,,SCT025,0.00,VWS V14.00,2013-03-31 18:39:00,
2013-03-31 14:44:00,80.8,44.7,30.21,SW,225,0.9,0.9,28,0.00,,SCT025,0.00,VWS V14.00,2013-03-31 18:44:00,
2013-03-31 14:49:00,81.0,45.8,30.21,West,270,3.8,3.8,29,0.00,,SCT025,0.00,VWS V14.00,2013-03-31 18:49:00,
2013-03-31 14:54:00,81.3,44.2,30.21,West,270,2.5,2.5,27,0.00,,SCT025,0.00,VWS V14.00,2013-03-31 18:54:00,
2013-03-31 14:59:00,81.0,43.9,30.21,SSE,158,2.2,2.2,27,0.00,,SCT025,0.00,VWS V14.00,2013-03-31 18:59:00,
2013-03-31 15:04:00,81.5,45.3,30.21,SW,225,1.3,1.3,28,0.00,,SCT025,0.00,VWS V14.00,2013-03-31 19:04:00,
2013-03-31 15:09:00,81.1,43.0,30.21,West,270,2.5,2.5,26,0.00,,SCT025,0.00,VWS V14.00,2013-03-31 19:09:00,
2013-03-31 15:14:00,81.5,44.3,30.21,SW,225,1.3,1.3,27,0.00,,SCT025,0.00,VWS V14.00,2013-03-31 19:14:00,
2013-03-31 15:19:00,81.7,44.5,30.21,South,180,6.5,6.5,27,0.00,,SCT025,0.00,VWS V14.00,2013-03-31 19:19:00,
2013-03-31 15:24:00,81.9,43.7,30.21,SW,225,1.3,1.3,26,0.00,,SCT025,0.00,VWS V14.00,2013-03-31 19:24:00,
2013-03-31 15:29:00,81.9,44.6,30.21,SSE,158,5.8,5.8,27,0.00,,SCT025,0.00,VWS V14.00,2013-03-31 19:29:00,
2013-03-31 15:34:00,81.3,44.2,30.18,SSW,202,5.8,5.8,27,0.00,,SCT025,0.00,VWS V14.00,2013-03-31 19:34:00,
2013-03-31 15:39:00,82.0,46.7,30.18,South,180,1.6,1.6,29,0.00,,SCT025,0.00,VWS V14.00,2013-03-31 19:39:00,
2013-03-31 15:44:00,82.2,42.9,30.18,WSW,248,2.0,2.0,25,0.00,,SCT025,0.00,VWS V14.00,2013-03-31 19:44:00,
2013-03-31 15:49:00,82.4,43.1,30.18,South,180,2.7,2.7,25,0.00,,SCT025,0.00,VWS V14.00,2013-03-31 19:49:00,
2013-03-31 15:54:00,82.8,44.4,30.18,East,90,2.9,2.9,26,0.00,,SCT025,0.00,VWS V14.00,2013-03-31 19:54:00,
2013-03-31 15:59:00,81.1,43.0,30.18,SSW,202,1.3,1.3,26,0.00,,SCT025,0.00,VWS V14.00,2013-03-31 19:59:00,
2013-03-31 16:04:00,81.5,52.0,30.18,SSE,158,5.6,5.6,36,0.00,,SCT025,0.00,VWS V14.00,2013-03-31 20:04:00,
2013-03-31 16:09:00,80.1,52.9,30.18,SE,135,5.4,5.4,39,0.00,,SCT025,0.00,VWS V14.00,2013-03-31 20:09:00,
2013-03-31 16:14:00,79.5,53.1,30.18,ESE,112,7.2,7.2,40,0.00,,SCT025,0.00,VWS V14.00,2013-03-31 20:14:00,
2013-03-31 16:19:00,78.3,53.3,30.18,SSE,158,6.5,6.5,42,0.00,,SCT025,0.00,VWS V14.00,2013-03-31 20:19:00,
2013-03-31 16:24:00,78.4,54.1,30.18,South,180,6.3,6.3,43,0.00,,SCT025,0.00,VWS V14.00,2013-03-31 20:24:00,
2013-03-31 16:29:00,78.4,54.1,30.18,SE,135,3.8,3.8,43,0.00,,SCT025,0.00,VWS V14.00,2013-03-31 20:29:00,
2013-03-31 16:34:00,78.1,54.4,30.18,ESE,112,7.4,7.4,44,0.00,,SCT025,0.00,VWS V14.00,2013-03-31 20:34:00,
2013-03-31 16:39:00,78.1,54.4,30.18,ESE,112,7.4,7.4,44,0.00,,SCT025,0.00,VWS V14.00,2013-03-31 20:39:00,
2013-03-31 16:44:00,78.4,54.7,30.18,SE,135,6.0,6.0,44,0.00,,SCT025,0.00,VWS V14.00,2013-03-31 20:44:00,
2013-03-31 16:49:00,77.5,53.3,30.18,SSE,158,8.5,8.5,43,0.00,,SCT025,0.00,VWS V14.00,2013-03-31 20:49:00,
2013-03-31 16:54:00,77.5,53.3,30.18,SE,135,4.0,4.0,43,0.00,,SCT025,0.00,VWS V14.00,2013-03-31 20:54:00,
2013-03-31 16:59:00,77.5,53.3,30.18,SE,135,13.6,13.6,43,0.00,,SCT025,0.00,VWS V14.00,2013-03-31 20:59:00,
2013-03-31 17:04:00,77.0,54.1,30.18,SE,135,7.6,7.6,45,0.00,,SCT025,0.00,VWS V14.00,2013-03-31 21:04:00,
2013-03-31 17:09:00,76.8,54.5,30.18,ENE,68,5.6,5.6,46,0.00,,SCT025,0.00,VWS V14.00,2013-03-31 21:09:00,
2013-03-31 17:14:00,76.6,53.7,30.15,ESE,112,8.5,8.5,45,0.00,,SCT025,0.00,VWS V14.00,2013-03-31 21:14:00,
2013-03-31 17:19:00,76.6,53.7,30.15,SSE,158,5.8,5.8,45,0.00,,SCT025,0.00,VWS V14.00,2013-03-31 21:19:00,
2013-03-31 17:24:00,76.3,55.2,30.15,ESE,112,7.8,7.8,48,0.00,,SCT025,0.00,VWS V14.00,2013-03-31 21:24:00,
2013-03-31 17:29:00,75.7,55.8,30.15,East,90,5.6,5.6,50,0.00,,SCT025,0.00,VWS V14.00,2013-03-31 21:29:00,
2013-03-31 17:34:00,75.7,55.2,30.15,SSE,158,4.7,4.7,49,0.00,,SCT025,0.00,VWS V14.00,2013-03-31 21:34:00,
2013-03-31 17:39:00,75.7,55.2,30.15,ESE,112,6.3,6.3,49,0.00,,SCT025,0.00,VWS V14.00,2013-03-31 21:39:00,
2013-03-31 17:44:00,75.4,56.5,30.15,East,90,6.5,6.5,52,0.00,,SCT025,0.00,VWS V14.00,2013-03-31 21:44:00,
2013-03-31 17:49:00,75.6,56.7,30.15,ESE,112,7.4,7.4,52,0.00,,SCT025,0.00,VWS V14.00,2013-03-31 21:49:00,
2013-03-31 17:54:00,75.6,56.2,30.15,East,90,4.0,4.0,51,0.00,,SCT025,0.00,VWS V14.00,2013-03-31 21:54:00,
2013-03-31 17:59:00,75.6,56.2,30.15,ESE,112,4.9,4.9,51,0.00,,SCT025,0.00,VWS V14.00,2013-03-31 21:59:00,
2013-03-31 18:04:00,75.2,55.3,30.15,ESE,112,7.6,7.6,50,0.00,,SCT025,0.00,VWS V14.00,2013-03-31 22:04:00,
2013-03-31 18:09:00,75.0,55.1,30.15,ESE,112,7.6,7.6,50,0.00,,SCT025,0.00,VWS V14.00,2013-03-31 22:09:00,
2013-03-31 18:14:00,75.0,55.1,30.15,East,90,5.6,5.6,50,0.00,,SCT025,0.00,VWS V14.00,2013-03-31 22:14:00,
2013-03-31 18:19:00,74.7,54.8,30.15,SSE,158,6.5,6.5,50,0.00,,SCT025,0.00,VWS V14.00,2013-03-31 22:19:00,
2013-03-31 18:24:00,74.7,54.8,30.15,SE,135,4.0,4.0,50,0.00,,SCT025,0.00,VWS V14.00,2013-03-31 22:24:00,
2013-03-31 18:29:00,74.7,54.8,30.15,South,180,7.2,7.2,50,0.00,,SCT025,0.00,VWS V14.00,2013-03-31 22:29:00,
2013-03-31 18:34:00,74.5,55.2,30.15,ESE,112,3.6,3.6,51,0.00,,SCT025,0.00,VWS V14.00,2013-03-31 22:34:00,
2013-03-31 18:39:00,74.5,55.2,30.15,ESE,112,3.1,3.1,51,0.00,,SCT025,0.00,VWS V14.00,2013-03-31 22:39:00,
2013-03-31 18:44:00,74.5,55.2,30.15,SSE,158,6.5,6.5,51,0.00,,SCT025,0.00,VWS V14.00,2013-03-31 22:44:00,
2013-03-31 18:49:00,74.3,55.6,30.15,SE,135,4.0,4.0,52,0.00,,SCT025,0.00,VWS V14.00,2013-03-31 22:49:00,
2013-03-31 18:54:00,74.1,55.9,30.15,ESE,112,2.9,2.9,53,0.00,,SCT025,0.00,VWS V14.00,2013-03-31 22:54:00,
2013-03-31 18:59:00,74.1,55.9,30.15,ESE,112,2.9,2.9,53,0.00,,SCT025,0.00,VWS V14.00,2013-03-31 22:59:00,
2013-03-31 19:04:00,74.1,55.9,30.15,East,90,2.0,2.0,53,0.00,,SCT025,0.00,VWS V14.00,2013-03-31 23:04:00,
2013-03-31 19:09:00,74.3,56.1,30.15,SSE,158,3.4,3.4,53,0.00,,SCT025,0.00,VWS V14.00,2013-03-31 23:09:00,
2013-03-31 19:14:00,74.3,56.1,30.15,ESE,112,6.3,6.3,53,0.00,,SCT025,0.00,VWS V14.00,2013-03-31 23:14:00,
2013-03-31 19:19:00,73.9,56.3,30.15,ESE,112,6.5,6.5,54,0.00,,SCT025,0.00,VWS V14.00,2013-03-31 23:19:00,
2013-03-31 19:24:00,73.9,56.3,30.15,SE,135,6.3,6.3,54,0.00,,SCT025,0.00,VWS V14.00,2013-03-31 23:24:00,
2013-03-31 19:29:00,73.8,56.6,30.15,ESE,112,3.1,3.1,55,0.00,,SCT025,0.00,VWS V14.00,2013-03-31 23:29:00,
2013-03-31 19:34:00,73.4,56.8,30.15,SSE,158,1.6,1.6,56,0.00,,SCT025,0.00,VWS V14.00,2013-03-31 23:34:00,
2013-03-31 19:39:00,73.2,57.1,30.15,SSE,158,3.1,3.1,57,0.00,,SCT025,0.00,VWS V14.00,2013-03-31 23:39:00,
2013-03-31 19:44:00,73.0,57.4,30.15,SSE,158,2.9,2.9,58,0.00,,SCT025,0.00,VWS V14.00,2013-03-31 23:44:00,
2013-03-31 19:49:00,72.9,57.2,30.15,ESE,112,0.9,0.9,58,0.00,,SCT025,0.00,VWS V14.00,2013-03-31 23:49:00,
2013-03-31 19:54:00,72.7,57.5,30.15,SE,135,4.5,4.5,59,0.00,,SCT025,0.00,VWS V14.00,2013-03-31 23:54:00,
2013-03-31 19:59:00,72.5,57.8,30.15,ESE,112,2.5,2.5,60,0.00,,SCT025,0.00,VWS V14.00,2013-03-31 23:59:00,
2013-03-31 20:04:00,72.5,57.8,30.15,ESE,112,4.0,4.0,60,0.00,,SCT025,0.00,VWS V14.00,2013-04-01 00:04:00,
2013-03-31 20:09:00,72.3,57.7,30.15,ESE,112,0.9,0.9,60,0.00,,SCT025,0.00,VWS V14.00,2013-04-01 00:09:00,
2013-03-31 20:14:00,72.1,58.0,30.15,SE,135,2.9,2.9,61,0.00,,SCT025,0.00,VWS V14.00,2013-04-01 00:14:00,
2013-03-31 20:19:00,72.0,58.7,30.15,ESE,112,2.7,2.7,63,0.00,,SCT025,0.00,VWS V14.00,2013-04-01 00:19:00,
2013-03-31 20:24:00,71.8,58.5,30.15,SE,135,1.1,1.1,63,0.00,,SCT025,0.00,VWS V14.00,2013-04-01 00:24:00,
2013-03-31 20:29:00,71.4,58.6,30.15,SE,135,2.0,2.0,64,0.00,,SCT025,0.00,VWS V14.00,2013-04-01 00:29:00,
2013-03-31 20:34:00,71.2,58.9,30.15,SSE,158,3.4,3.4,65,0.00,,SCT025,0.00,VWS V14.00,2013-04-01 00:34:00,
2013-03-31 20:39:00,71.1,58.7,30.15,SE,135,2.7,2.7,65,0.00,,SCT025,0.00,VWS V14.00,2013-04-01 00:39:00,
2013-03-31 20:44:00,70.9,59.4,30.15,East,90,3.1,3.1,67,0.00,,SCT025,0.00,VWS V14.00,2013-04-01 00:44:00,
2013-03-31 20:49:00,70.7,59.6,30.15,ESE,112,3.8,3.8,68,0.00,,SCT025,0.00,VWS V14.00,2013-04-01 00:49:00,
2013-03-31 20:54:00,70.7,59.6,30.15,East,90,3.4,3.4,68,0.00,,SCT025,0.00,VWS V14.00,2013-04-01 00:54:00,
2013-03-31 20:59:00,70.5,59.9,30.15,SSE,158,3.6,3.6,69,0.00,,SCT025,0.00,VWS V14.00,2013-04-01 00:59:00,
2013-03-31 21:04:00,70.5,60.3,30.15,SSE,158,4.0,4.0,70,0.00,,SCT025,0.00,VWS V14.00,2013-04-01 01:04:00,
2013-03-31 21:09:00,70.5,60.3,30.15,SE,135,3.8,3.8,70,0.00,,SCT025,0.00,VWS V14.00,2013-04-01 01:09:00,
2013-03-31 21:14:00,70.5,60.3,30.15,SSE,158,3.6,3.6,70,0.00,,SCT025,0.00,VWS V14.00,2013-04-01 01:14:00,
2013-03-31 21:19:00,70.3,60.5,30.15,South,180,3.4,3.4,71,0.00,,SCT025,0.00,VWS V14.00,2013-04-01 01:19:00,
2013-03-31 21:24:00,70.5,61.1,30.15,SSE,158,2.9,2.9,72,0.00,,SCT025,0.00,VWS V14.00,2013-04-01 01:24:00,
2013-03-31 21:29:00,70.3,60.9,30.15,SSE,158,4.0,4.0,72,0.00,,SCT025,0.00,VWS V14.00,2013-04-01 01:29:00,
2013-03-31 21:34:00,70.3,60.5,30.18,South,180,2.5,2.5,71,0.00,,SCT025,0.00,VWS V14.00,2013-04-01 01:34:00,
2013-03-31 21:39:00,70.3,60.5,30.18,SSE,158,3.1,3.1,71,0.00,,SCT025,0.00,VWS V14.00,2013-04-01 01:39:00,
2013-03-31 21:44:00,70.3,60.9,30.15,SSE,158,4.9,4.9,72,0.00,,SCT025,0.00,VWS V14.00,2013-04-01 01:44:00,
2013-03-31 21:49:00,70.3,60.9,30.15,SSE,158,4.0,4.0,72,0.00,,SCT025,0.00,VWS V14.00,2013-04-01 01:49:00,
2013-03-31 21:54:00,70.3,60.9,30.15,SSE,158,4.3,4.3,72,0.00,,SCT025,0.00,VWS V14.00,2013-04-01 01:54:00,
2013-03-31 21:59:00,70.3,60.9,30.15,SSE,158,3.8,3.8,72,0.00,,SCT025,0.00,VWS V14.00,2013-04-01 01:59:00,
2013-03-31 22:04:00,70.2,60.7,30.18,South,180,2.9,2.9,72,0.00,,SCT025,0.00,VWS V14.00,2013-04-01 02:04:00,
2013-03-31 22:09:00,70.2,61.1,30.18,ESE,112,4.3,4.3,73,0.00,,SCT025,0.00,VWS V14.00,2013-04-01 02:09:00,
2013-03-31 22:14:00,70.3,60.9,30.18,South,180,1.6,1.6,72,0.00,,SCT025,0.00,VWS V14.00,2013-04-01 02:14:00,
2013-03-31 22:19:00,70.3,60.9,30.18,SSE,158,3.6,3.6,72,0.00,,SCT025,0.00,VWS V14.00,2013-04-01 02:19:00,
2013-03-31 22:24:00,70.3,60.9,30.18,SSW,202,3.1,3.1,72,0.00,,SCT025,0.00,VWS V14.00,2013-04-01 02:24:00,
2013-03-31 22:29:00,70.2,61.1,30.18,WSW,248,3.1,3.1,73,0.00,,SCT025,0.00,VWS V14.00,2013-04-01 02:29:00,
2013-03-31 22:34:00,70.2,61.1,30.15,SSW,202,5.8,5.8,73,0.00,,SCT025,0.00,VWS V14.00,2013-04-01 02:34:00,
2013-03-31 22:39:00,70.2,61.1,30.15,SSW,202,4.0,4.0,73,0.00,,SCT025,0.00,VWS V14.00,2013-04-01 02:39:00,
2013-03-31 22:44:00,70.2,61.1,30.15,SSE,158,7.8,7.8,73,0.00,,SCT025,0.00,VWS V14.00,2013-04-01 02:44:00,
2013-03-31 22:49:00,70.0,60.9,30.18,SSE,158,3.1,3.1,73,0.00,,SCT025,0.00,VWS V14.00,2013-04-01 02:49:00,
2013-03-31 22:54:00,70.0,60.9,30.18,SE,135,3.4,3.4,73,0.00,,SCT025,0.00,VWS V14.00,2013-04-01 02:54:00,
2013-03-31 22:59:00,70.0,60.9,30.18,East,90,2.2,2.2,73,0.00,,SCT025,0.00,VWS V14.00,2013-04-01 02:59:00,
2013-03-31 23:04:00,70.0,60.9,30.18,ESE,112,4.0,4.0,73,0.00,,SCT025,0.00,VWS V14.00,2013-04-01 03:04:00,
2013-03-31 23:09:00,70.0,60.9,30.18,South,180,4.7,4.7,73,0.00,,SCT025,0.00,VWS V14.00,2013-04-01 03:09:00,
2013-03-31 23:14:00,70.0,60.9,30.18,SW,225,2.5,2.5,73,0.00,,SCT025,0.00,VWS V14.00,2013-04-01 03:14:00,
2013-03-31 23:19:00,70.0,60.9,30.18,South,180,1.3,1.3,73,0.00,,SCT025,0.00,VWS V14.00,2013-04-01 03:19:00,
2013-03-31 23:24:00,70.0,60.9,30.18,South,180,2.2,2.2,73,0.00,,SCT025,0.00,VWS V14.00,2013-04-01 03:24:00,
2013-03-31 23:29:00,70.0,60.9,30.18,South,180,4.9,4.9,73,0.00,,SCT025,0.00,VWS V14.00,2013-04-01 03:29:00,
2013-03-31 23:34:00,69.6,61.3,30.18,South,180,2.5,2.5,75,0.00,,SCT025,0.00,VWS V14.00,2013-04-01 03:34:00,
2013-03-31 23:39:00,69.6,61.3,30.18,SW,225,2.0,2.0,75,0.00,,SCT025,0.00,VWS V14.00,2013-04-01 03:39:00,
2013-03-31 23:44:00,69.4,61.2,30.18,SSE,158,2.2,2.2,75,0.00,,SCT025,0.00,VWS V14.00,2013-04-01 03:44:00,
2013-03-31 23:49:00,69.4,61.5,30.18,SW,225,1.1,1.1,76,0.00,,SCT025,0.00,VWS V14.00,2013-04-01 03:49:00,
2013-03-31 23:54:00,69.3,61.8,30.18,SW,225,0.0,0.0,77,0.00,,SCT025,0.00,VWS V14.00,2013-04-01 03:54:00,
2013-03-31 23:59:00,69.3,61.8,30.18,SSW,202,1.1,1.1,77,0.00,,SCT025,0.00,VWS V14.00,2013-04-01 03:59:00,